createdAt,value
2022-12-15T00:03:50.161Z,53.51
2022-12-15T00:09:31.359Z,53.68
2022-12-15T00:15:11.964Z,53.98
2022-12-15T00:20:53.664Z,53.43
2022-12-15T00:26:35.423Z,52.68
2022-12-15T00:32:16.552Z,52.78
2022-12-15T00:37:57.099Z,52.67
2022-12-15T00:43:20.866Z,52.68
2022-12-15T00:48:44.705Z,52.76
2022-12-15T00:54:26.964Z,52.75
2022-12-15T01:00:08.466Z,52.63
2022-12-15T01:05:49.540Z,52.14
2022-12-15T01:11:30.257Z,52.33
2022-12-15T01:17:11.226Z,52.13
2022-12-15T01:22:34.680Z,52.04
2022-12-15T01:27:59.659Z,52.18
2022-12-15T01:33:24.422Z,52.47
2022-12-15T01:38:53.672Z,52.81
2022-12-15T01:44:24.862Z,52.94
2022-12-15T01:49:49.272Z,52.83
2022-12-15T01:55:13.095Z,52.90
2022-12-15T02:00:37.489Z,53.10
2022-12-15T02:06:02.381Z,53.40
2022-12-15T02:11:26.135Z,53.31
2022-12-15T02:17:04.016Z,53.13
2022-12-15T02:22:28.120Z,53.15
2022-12-15T02:27:51.741Z,53.14
2022-12-15T02:33:17.374Z,53.37
2022-12-15T02:38:42.907Z,53.34
2022-12-15T02:44:10.187Z,53.21
2022-12-15T02:50:03.330Z,53.28
2022-12-15T02:55:33.061Z,53.36
2022-12-15T03:01:00.023Z,53.42
2022-12-15T03:06:24.296Z,53.16
2022-12-15T03:11:48.751Z,53.20
2022-12-15T03:17:12.239Z,53.29
2022-12-15T03:22:36.475Z,53.52
2022-12-15T03:28:00.172Z,53.53
2022-12-15T03:33:23.925Z,53.42
2022-12-15T03:38:48.412Z,53.18
2022-12-15T03:44:13.004Z,53.24
2022-12-15T03:49:36.616Z,53.24
2022-12-15T03:55:00.442Z,53.19
2022-12-15T04:00:24.830Z,53.13
2022-12-15T04:05:48.820Z,53.07
2022-12-15T04:11:13.229Z,53.02
2022-12-15T04:16:37.751Z,53.10
2022-12-15T04:22:03.824Z,53.22
2022-12-15T04:27:44.578Z,52.90
2022-12-15T04:33:30.601Z,52.39
2022-12-15T04:39:11.785Z,52.23
2022-12-15T04:44:54.385Z,52.01
2022-12-15T04:50:35.298Z,52.15
2022-12-15T04:56:18.708Z,52.43
2022-12-15T05:01:59.816Z,52.85
2022-12-15T05:07:40.740Z,52.87
2022-12-15T05:13:25.232Z,52.81
2022-12-15T05:19:07.314Z,52.96
2022-12-15T05:24:49.368Z,53.35
2022-12-15T05:30:30.373Z,53.66
2022-12-15T05:35:54.372Z,54.00
2022-12-15T05:41:18.827Z,53.99
2022-12-15T05:46:42.709Z,53.91
2022-12-15T05:52:07.945Z,53.75
2022-12-15T05:57:33.191Z,53.69
2022-12-15T06:02:56.923Z,53.32
2022-12-15T06:08:20.549Z,53.03
2022-12-15T06:13:44.640Z,52.48
2022-12-15T06:19:09.156Z,52.32
2022-12-15T06:24:33.102Z,52.63
2022-12-15T06:29:58.538Z,52.66
2022-12-15T06:35:22.843Z,52.97
2022-12-15T06:40:46.503Z,53.25
2022-12-15T06:46:10.568Z,53.09
2022-12-15T06:51:34.443Z,52.82
2022-12-15T06:56:58.563Z,52.37
2022-12-15T07:02:28.678Z,51.89
2022-12-15T07:07:54.385Z,51.61
2022-12-15T07:13:19.860Z,51.96
2022-12-15T07:18:43.645Z,52.08
2022-12-15T07:24:08.365Z,51.91
2022-12-15T07:29:33.437Z,51.95
2022-12-15T07:34:57.974Z,51.99
2022-12-15T07:40:21.697Z,51.87
2022-12-15T07:45:51.180Z,51.66
2022-12-15T07:51:19.395Z,51.40
2022-12-15T07:56:44.129Z,50.86
2022-12-15T08:02:15.160Z,50.88
2022-12-15T08:07:39.718Z,50.46
2022-12-15T08:13:03.405Z,50.20
2022-12-15T08:18:27.269Z,50.17
2022-12-15T08:23:51.157Z,50.06
2022-12-15T08:29:49.510Z,49.91
2022-12-15T08:34:59.790Z,49.37
2022-12-15T08:40:25.596Z,48.99
2022-12-15T08:45:49.491Z,48.96
2022-12-15T08:51:14.451Z,49.25
2022-12-15T08:56:38.472Z,49.52
2022-12-15T09:02:02.473Z,49.85
2022-12-15T09:07:26.519Z,50.23
2022-12-15T09:12:51.446Z,50.46
2022-12-15T09:18:16.613Z,50.58
2022-12-15T09:23:40.386Z,50.46
2022-12-15T09:29:04.152Z,50.51
2022-12-15T09:34:28.744Z,50.74
2022-12-15T09:39:52.700Z,50.94
2022-12-15T09:45:21.659Z,50.89
2022-12-15T09:50:45.491Z,50.68
2022-12-15T09:56:09.852Z,51.03
2022-12-15T10:01:36.734Z,51.28
2022-12-15T10:07:22.135Z,51.10
2022-12-15T10:18:56.095Z,51.02
2022-12-15T10:25:00.353Z,50.76
2022-12-15T10:30:09.734Z,50.40
2022-12-15T10:35:34.512Z,49.89
2022-12-15T10:40:58.857Z,49.54
2022-12-15T10:46:25.293Z,49.54
2022-12-15T10:51:54.421Z,49.70
2022-12-15T10:57:21.109Z,49.37
2022-12-15T11:02:44.885Z,49.23
2022-12-15T11:08:16.647Z,48.95
2022-12-15T11:13:40.513Z,48.90
2022-12-15T11:19:07.027Z,48.64
2022-12-15T11:24:41.468Z,48.02
2022-12-15T11:30:14.568Z,47.96
2022-12-15T11:36:07.963Z,48.02
2022-12-15T11:41:50.795Z,47.74
2022-12-15T11:47:40.062Z,47.48
2022-12-15T11:53:18.267Z,47.44
2022-12-15T11:58:53.821Z,47.68
2022-12-15T12:04:25.637Z,47.60
2022-12-15T12:09:55.711Z,47.41
2022-12-15T12:15:28.096Z,47.09
2022-12-15T12:20:53.281Z,47.09
2022-12-15T12:26:37.541Z,46.73
2022-12-15T12:32:07.639Z,46.52
2022-12-15T12:37:39.156Z,51.04
2022-12-15T12:43:02.724Z,55.33
2022-12-15T12:48:28.407Z,57.69
2022-12-15T12:53:52.193Z,58.54
2022-12-15T12:59:31.951Z,59.02
2022-12-15T13:05:00.329Z,59.01
2022-12-15T13:10:26.842Z,59.32
2022-12-15T13:15:51.565Z,58.93
2022-12-15T13:21:38.164Z,57.79
2022-12-15T13:27:20.252Z,56.46
2022-12-15T13:32:46.004Z,57.22
2022-12-15T13:38:18.461Z,57.57
2022-12-15T13:43:43.644Z,57.88
2022-12-15T13:49:14.168Z,57.93
2022-12-15T13:54:40.398Z,57.58
2022-12-15T14:00:05.478Z,57.31
2022-12-15T14:05:36.018Z,56.92
2022-12-15T14:11:06.943Z,57.02
2022-12-15T14:16:40.122Z,56.62
2022-12-15T14:22:03.796Z,56.48
2022-12-15T14:27:28.438Z,56.45
2022-12-15T14:32:53.630Z,56.27
2022-12-15T14:38:25.969Z,56.11
2022-12-15T14:44:32.022Z,56.45
2022-12-15T14:49:38.476Z,56.55
2022-12-15T14:55:25.577Z,56.60
2022-12-15T15:00:52.993Z,56.54
2022-12-15T15:03:10.852Z,50.84
2022-12-15T15:06:18.353Z,56.72
2022-12-15T15:11:42.675Z,56.99
2022-12-15T15:17:07.807Z,57.23
2022-12-15T15:22:36.643Z,57.20
2022-12-15T15:28:18.729Z,57.30
2022-12-15T15:33:42.057Z,57.34
2022-12-15T15:39:06.906Z,57.46
2022-12-15T15:44:30.909Z,57.61
2022-12-15T15:49:55.622Z,57.83
2022-12-15T15:55:21.138Z,57.92
2022-12-15T16:00:44.776Z,58.08
2022-12-15T16:06:11.100Z,58.31
2022-12-15T16:11:35.571Z,58.50
2022-12-15T16:17:00.436Z,58.64
2022-12-15T16:22:24.961Z,58.80
2022-12-15T16:27:48.979Z,58.91
2022-12-15T16:33:13.106Z,59.10
2022-12-15T16:38:38.391Z,59.18
2022-12-15T16:44:03.069Z,59.40
2022-12-15T16:49:28.769Z,72.85
2022-12-15T16:54:53.159Z,77.38
2022-12-15T17:00:24.099Z,71.75
2022-12-15T17:05:49.729Z,65.99
2022-12-15T17:11:23.104Z,61.15
2022-12-15T17:16:47.041Z,56.91
2022-12-15T17:22:14.801Z,53.78
2022-12-15T17:27:39.455Z,51.59
2022-12-15T17:33:03.059Z,49.63
2022-12-15T17:38:26.892Z,48.85
2022-12-15T17:44:09.748Z,47.73
2022-12-15T17:49:37.211Z,48.43
2022-12-15T17:55:01.646Z,46.79
2022-12-15T18:00:28.094Z,46.01
2022-12-15T18:05:52.673Z,46.21
2022-12-15T18:11:17.114Z,45.72
2022-12-15T18:16:40.827Z,45.06
2022-12-15T18:22:04.897Z,44.48
2022-12-15T18:27:29.711Z,43.91
2022-12-15T18:32:56.470Z,43.44
2022-12-15T18:38:24.278Z,42.93
2022-12-15T18:43:47.860Z,42.71
2022-12-15T18:49:14.570Z,42.49
2022-12-15T18:54:38.961Z,42.19
2022-12-15T19:00:15.319Z,42.04
2022-12-15T19:05:40.347Z,41.85
2022-12-15T19:11:13.703Z,41.62
2022-12-15T19:16:51.144Z,41.34
2022-12-15T19:22:30.888Z,41.19
2022-12-15T19:27:59.307Z,41.08
2022-12-15T19:33:24.050Z,40.98
2022-12-15T19:38:48.317Z,40.82
2022-12-15T19:44:15.781Z,40.57
2022-12-15T19:49:39.676Z,40.66
2022-12-15T19:55:03.510Z,41.02
2022-12-15T20:00:27.608Z,41.06
2022-12-15T20:05:52.308Z,41.12
2022-12-15T20:11:21.253Z,41.23
2022-12-15T20:16:45.456Z,41.77
2022-12-15T20:22:12.634Z,42.02
2022-12-15T20:27:36.638Z,41.92
2022-12-15T20:33:03.412Z,41.91
2022-12-15T20:38:35.057Z,41.60
2022-12-15T20:43:59.845Z,41.58
2022-12-15T20:49:23.940Z,41.17
2022-12-15T20:54:47.742Z,41.04
2022-12-15T21:00:13.412Z,41.22
2022-12-15T21:05:37.016Z,41.39
2022-12-15T21:11:20.483Z,41.52
2022-12-15T21:16:45.307Z,41.54
2022-12-15T21:22:10.586Z,41.75
2022-12-15T21:27:34.099Z,41.80
2022-12-15T21:32:57.918Z,41.82
2022-12-15T21:38:32.835Z,41.79
2022-12-15T21:43:57.384Z,41.90
2022-12-15T21:49:22.123Z,42.04
2022-12-15T21:54:45.897Z,41.84
2022-12-15T22:00:13.753Z,41.69
2022-12-15T22:05:37.291Z,41.90
2022-12-15T22:11:01.001Z,42.22
2022-12-15T22:16:26.344Z,42.94
2022-12-15T22:21:51.133Z,43.29
2022-12-15T22:27:23.486Z,43.70
2022-12-15T22:32:47.499Z,43.91
2022-12-15T22:38:11.146Z,44.18
2022-12-15T22:43:44.319Z,44.65
2022-12-15T22:49:10.096Z,45.26
2022-12-15T22:54:34.515Z,45.91
2022-12-15T23:00:04.369Z,46.26
2022-12-15T23:05:27.947Z,46.57
2022-12-15T23:11:08.947Z,46.79
2022-12-15T23:16:32.599Z,46.75
2022-12-15T23:21:56.889Z,46.69
2022-12-15T23:27:21.583Z,46.63
2022-12-15T23:32:45.370Z,46.56
2022-12-15T23:38:09.373Z,46.47
2022-12-15T23:43:33.678Z,46.40
2022-12-15T23:48:57.559Z,46.26
2022-12-15T23:54:22.119Z,46.30
2022-12-15T23:59:46.541Z,46.43
